sensor_id;sensor_type;location;lat;lon;timestamp;pressure;altitude;pressure_sealevel;temperature;humidity
50105;BME280;47690;39.202;-77.198;2023-09-12T00:01:58;100172.03;;;26.78;64.63
50105;BME280;47690;39.202;-77.198;2023-09-12T00:04:28;100161.00;;;26.72;65.34
50105;BME280;47690;39.202;-77.198;2023-09-12T00:06:59;100165.84;;;26.67;65.46
50105;BME280;47690;39.202;-77.198;2023-09-12T00:09:29;100174.16;;;26.63;65.48
50105;BME280;47690;39.202;-77.198;2023-09-12T00:12:00;100178.75;;;26.61;65.50
50105;BME280;47690;39.202;-77.198;2023-09-12T00:14:31;100175.53;;;26.57;65.84
50105;BME280;47690;39.202;-77.198;2023-09-12T00:17:01;100168.81;;;26.53;65.51
50105;BME280;47690;39.202;-77.198;2023-09-12T00:19:43;100175.34;;;26.49;65.68
50105;BME280;47690;39.202;-77.198;2023-09-12T00:22:15;100180.84;;;26.45;66.10
50105;BME280;47690;39.202;-77.198;2023-09-12T00:24:45;100176.09;;;26.39;65.82
50105;BME280;47690;39.202;-77.198;2023-09-12T00:27:17;100194.84;;;26.36;66.05
50105;BME280;47690;39.202;-77.198;2023-09-12T00:29:47;100193.53;;;26.30;66.46
50105;BME280;47690;39.202;-77.198;2023-09-12T00:32:19;100193.78;;;26.27;66.46
50105;BME280;47690;39.202;-77.198;2023-09-12T00:34:49;100198.63;;;26.22;66.34
50105;BME280;47690;39.202;-77.198;2023-09-12T00:37:26;100204.25;;;26.17;66.75
50105;BME280;47690;39.202;-77.198;2023-09-12T00:39:55;100207.41;;;26.11;66.88
50105;BME280;47690;39.202;-77.198;2023-09-12T00:42:27;100219.03;;;26.09;67.20
50105;BME280;47690;39.202;-77.198;2023-09-12T00:44:59;100216.63;;;26.05;67.23
50105;BME280;47690;39.202;-77.198;2023-09-12T00:47:31;100215.09;;;26.03;67.00
50105;BME280;47690;39.202;-77.198;2023-09-12T00:50:04;100222.44;;;25.99;67.33
50105;BME280;47690;39.202;-77.198;2023-09-12T00:52:36;100226.16;;;25.97;67.28
50105;BME280;47690;39.202;-77.198;2023-09-12T00:55:09;100224.72;;;25.92;67.91
50105;BME280;47690;39.202;-77.198;2023-09-12T00:57:41;100225.09;;;25.88;67.74
50105;BME280;47690;39.202;-77.198;2023-09-12T01:00:12;100236.72;;;25.85;67.92
50105;BME280;47690;39.202;-77.198;2023-09-12T01:02:47;100236.88;;;25.84;68.42
50105;BME280;47690;39.202;-77.198;2023-09-12T01:05:19;100239.56;;;25.94;67.48
50105;BME280;47690;39.202;-77.198;2023-09-12T01:07:51;100244.31;;;25.78;68.56
50105;BME280;47690;39.202;-77.198;2023-09-12T01:10:21;100246.47;;;25.73;68.22
50105;BME280;47690;39.202;-77.198;2023-09-12T01:12:52;100241.44;;;25.70;68.46
50105;BME280;47690;39.202;-77.198;2023-09-12T01:15:23;100244.19;;;25.69;68.53
50105;BME280;47690;39.202;-77.198;2023-09-12T01:18:11;100251.25;;;25.68;68.56
50105;BME280;47690;39.202;-77.198;2023-09-12T01:24:47;100272.00;;;25.61;69.16
50105;BME280;47690;39.202;-77.198;2023-09-12T01:27:28;100267.09;;;25.57;69.19
50105;BME280;47690;39.202;-77.198;2023-09-12T01:30:05;100268.19;;;25.54;69.47
50105;BME280;47690;39.202;-77.198;2023-09-12T01:32:37;100273.66;;;25.51;69.15
50105;BME280;47690;39.202;-77.198;2023-09-12T01:35:09;100274.75;;;25.48;69.25
50105;BME280;47690;39.202;-77.198;2023-09-12T01:37:39;100276.63;;;25.46;69.65
50105;BME280;47690;39.202;-77.198;2023-09-12T01:40:10;100279.41;;;25.45;69.89
50105;BME280;47690;39.202;-77.198;2023-09-12T01:42:45;100275.94;;;25.44;69.91
50105;BME280;47690;39.202;-77.198;2023-09-12T01:45:19;100282.41;;;25.40;69.87
50105;BME280;47690;39.202;-77.198;2023-09-12T01:47:52;100278.19;;;25.49;69.43
50105;BME280;47690;39.202;-77.198;2023-09-12T01:50:25;100277.63;;;25.34;69.99
50105;BME280;47690;39.202;-77.198;2023-09-12T01:52:56;100278.91;;;25.28;69.98
50105;BME280;47690;39.202;-77.198;2023-09-12T01:55:28;100277.47;;;25.24;70.54
50105;BME280;47690;39.202;-77.198;2023-09-12T01:57:59;100278.53;;;25.21;70.09
50105;BME280;47690;39.202;-77.198;2023-09-12T02:00:29;100285.75;;;25.19;70.35
50105;BME280;47690;39.202;-77.198;2023-09-12T02:02:59;100291.22;;;25.16;70.18
50105;BME280;47690;39.202;-77.198;2023-09-12T02:05:29;100300.25;;;25.14;70.61
50105;BME280;47690;39.202;-77.198;2023-09-12T02:08:04;100298.66;;;25.11;70.63
50105;BME280;47690;39.202;-77.198;2023-09-12T02:10:36;100294.47;;;25.08;70.75
50105;BME280;47690;39.202;-77.198;2023-09-12T02:13:07;100302.59;;;25.05;70.68
50105;BME280;47690;39.202;-77.198;2023-09-12T02:15:39;100295.78;;;25.03;70.57
50105;BME280;47690;39.202;-77.198;2023-09-12T02:18:11;100301.25;;;25.00;70.77
50105;BME280;47690;39.202;-77.198;2023-09-12T02:20:43;100307.50;;;24.99;70.93
50105;BME280;47690;39.202;-77.198;2023-09-12T02:23:15;100305.81;;;24.98;70.60
50105;BME280;47690;39.202;-77.198;2023-09-12T02:25:46;100305.09;;;24.95;70.74
50105;BME280;47690;39.202;-77.198;2023-09-12T02:28:16;100305.31;;;24.92;70.94
50105;BME280;47690;39.202;-77.198;2023-09-12T02:30:47;100306.38;;;24.90;70.99
50105;BME280;47690;39.202;-77.198;2023-09-12T02:33:17;100306.38;;;24.90;71.04
50105;BME280;47690;39.202;-77.198;2023-09-12T02:35:51;100310.81;;;24.89;71.03
50105;BME280;47690;39.202;-77.198;2023-09-12T02:38:20;100313.66;;;24.86;71.08
50105;BME280;47690;39.202;-77.198;2023-09-12T02:40:51;100313.81;;;24.85;71.39
50105;BME280;47690;39.202;-77.198;2023-09-12T02:43:20;100321.91;;;24.81;71.08
50105;BME280;47690;39.202;-77.198;2023-09-12T02:45:51;100321.28;;;24.78;71.25
50105;BME280;47690;39.202;-77.198;2023-09-12T02:48:20;100331.91;;;24.76;71.02
50105;BME280;47690;39.202;-77.198;2023-09-12T02:50:51;100332.06;;;24.75;71.25
50105;BME280;47690;39.202;-77.198;2023-09-12T02:53:23;100327.75;;;24.74;71.34
50105;BME280;47690;39.202;-77.198;2023-09-12T02:55:52;100321.72;;;24.72;71.43
50105;BME280;47690;39.202;-77.198;2023-09-12T02:58:24;100324.59;;;24.68;71.46
50105;BME280;47690;39.202;-77.198;2023-09-12T03:00:56;100327.34;;;24.67;71.04
50105;BME280;47690;39.202;-77.198;2023-09-12T03:03:28;100324.09;;;24.63;71.41
50105;BME280;47690;39.202;-77.198;2023-09-12T03:05:59;100323.38;;;24.61;71.45
50105;BME280;47690;39.202;-77.198;2023-09-12T03:08:30;100312.22;;;24.58;71.36
50105;BME280;47690;39.202;-77.198;2023-09-12T03:11:01;100314.97;;;24.56;71.53
50105;BME280;47690;39.202;-77.198;2023-09-12T03:13:33;100313.38;;;24.53;71.51
50105;BME280;47690;39.202;-77.198;2023-09-12T03:16:09;100317.94;;;24.51;71.67
50105;BME280;47690;39.202;-77.198;2023-09-12T03:18:39;100305.63;;;24.52;71.68
50105;BME280;47690;39.202;-77.198;2023-09-12T03:21:10;100306.56;;;24.51;71.77
50105;BME280;47690;39.202;-77.198;2023-09-12T03:23:41;100304.88;;;24.50;71.71
50105;BME280;47690;39.202;-77.198;2023-09-12T03:26:15;100299.50;;;24.51;71.89
50105;BME280;47690;39.202;-77.198;2023-09-12T03:28:45;100296.88;;;24.51;71.84
50105;BME280;47690;39.202;-77.198;2023-09-12T03:31:15;100299.50;;;24.51;71.80
50105;BME280;47690;39.202;-77.198;2023-09-12T03:33:45;100300.47;;;24.50;71.84
50105;BME280;47690;39.202;-77.198;2023-09-12T03:36:20;100296.03;;;24.51;71.84
50105;BME280;47690;39.202;-77.198;2023-09-12T03:38:50;100307.50;;;24.50;71.75
50105;BME280;47690;39.202;-77.198;2023-09-12T03:41:20;100307.50;;;24.50;71.59
50105;BME280;47690;39.202;-77.198;2023-09-12T03:43:55;100307.84;;;24.45;71.81
50105;BME280;47690;39.202;-77.198;2023-09-12T03:46:25;100308.19;;;24.40;71.88
50105;BME280;47690;39.202;-77.198;2023-09-12T03:48:56;100308.53;;;24.36;71.70
50105;BME280;47690;39.202;-77.198;2023-09-12T03:51:27;100311.25;;;24.34;72.01
50105;BME280;47690;39.202;-77.198;2023-09-12T03:53:57;100315.91;;;24.31;72.00
50105;BME280;47690;39.202;-77.198;2023-09-12T03:56:28;100322.22;;;24.28;71.80
50105;BME280;47690;39.202;-77.198;2023-09-12T03:58:57;100318.88;;;24.26;72.01
50105;BME280;47690;39.202;-77.198;2023-09-12T04:01:29;100322.69;;;24.22;72.24
50105;BME280;47690;39.202;-77.198;2023-09-12T04:03:59;100319.31;;;24.20;72.06
50105;BME280;47690;39.202;-77.198;2023-09-12T04:06:33;100317.63;;;24.19;72.15
50105;BME280;47690;39.202;-77.198;2023-09-12T04:09:05;100314.19;;;24.18;72.34
50105;BME280;47690;39.202;-77.198;2023-09-12T04:11:36;100307.22;;;24.17;72.44
50105;BME280;47690;39.202;-77.198;2023-09-12T04:14:14;100303.75;;;24.17;72.40
50105;BME280;47690;39.202;-77.198;2023-09-12T04:16:44;100300.41;;;24.14;72.21
50105;BME280;47690;39.202;-77.198;2023-09-12T04:19:15;100303.03;;;24.14;72.15
50105;BME280;47690;39.202;-77.198;2023-09-12T04:21:45;100295.34;;;24.11;72.08
50105;BME280;47690;39.202;-77.198;2023-09-12T04:24:16;100286.00;;;24.07;72.13
50105;BME280;47690;39.202;-77.198;2023-09-12T04:26:47;100287.84;;;24.05;72.21
50105;BME280;47690;39.202;-77.198;2023-09-12T04:29:16;100290.00;;;24.00;71.73
50105;BME280;47690;39.202;-77.198;2023-09-12T04:31:47;100298.09;;;23.97;72.41
50105;BME280;47690;39.202;-77.198;2023-09-12T04:34:18;100299.13;;;23.94;72.24
50105;BME280;47690;39.202;-77.198;2023-09-12T04:36:49;100294.97;;;23.92;72.27
50105;BME280;47690;39.202;-77.198;2023-09-12T04:39:20;100294.34;;;23.88;72.35
50105;BME280;47690;39.202;-77.198;2023-09-12T04:41:51;100286.66;;;23.85;72.44
50105;BME280;47690;39.202;-77.198;2023-09-12T04:44:20;100280.75;;;23.81;72.26
50105;BME280;47690;39.202;-77.198;2023-09-12T04:46:53;100290.56;;;23.79;72.24
50105;BME280;47690;39.202;-77.198;2023-09-12T04:49:25;100289.84;;;23.77;72.54
50105;BME280;47690;39.202;-77.198;2023-09-12T04:51:56;100294.25;;;23.77;72.64
50105;BME280;47690;39.202;-77.198;2023-09-12T04:54:28;100293.38;;;23.76;72.52
50105;BME280;47690;39.202;-77.198;2023-09-12T04:56:59;100289.06;;;23.75;72.27
50105;BME280;47690;39.202;-77.198;2023-09-12T04:59:29;100293.50;;;23.74;72.38
50105;BME280;47690;39.202;-77.198;2023-09-12T05:02:01;100293.72;;;23.71;72.65
50105;BME280;47690;39.202;-77.198;2023-09-12T05:04:34;100292.03;;;23.70;72.62
50105;BME280;47690;39.202;-77.198;2023-09-12T05:07:04;100290.47;;;23.68;72.48
50105;BME280;47690;39.202;-77.198;2023-09-12T05:09:33;100287.09;;;23.66;72.62
50105;BME280;47690;39.202;-77.198;2023-09-12T05:12:03;100284.56;;;23.64;72.76
50105;BME280;47690;39.202;-77.198;2023-09-12T05:14:35;100288.16;;;23.63;72.32
50105;BME280;47690;39.202;-77.198;2023-09-12T05:17:06;100283.94;;;23.60;72.13
50105;BME280;47690;39.202;-77.198;2023-09-12T05:19:37;100285.94;;;23.57;72.51
50105;BME280;47690;39.202;-77.198;2023-09-12T05:22:08;100284.38;;;23.54;72.46
50105;BME280;47690;39.202;-77.198;2023-09-12T05:24:38;100281.00;;;23.52;72.64
50105;BME280;47690;39.202;-77.198;2023-09-12T05:27:08;100283.63;;;23.52;72.44
50105;BME280;47690;39.202;-77.198;2023-09-12T05:29:39;100276.69;;;23.51;72.81
50105;BME280;47690;39.202;-77.198;2023-09-12T05:32:08;100275.97;;;23.49;72.37
50105;BME280;47690;39.202;-77.198;2023-09-12T05:34:39;100278.69;;;23.48;72.89
50105;BME280;47690;39.202;-77.198;2023-09-12T05:37:09;100282.38;;;23.45;72.89
50105;BME280;47690;39.202;-77.198;2023-09-12T05:39:40;100279.75;;;23.45;72.74
50105;BME280;47690;39.202;-77.198;2023-09-12T05:42:11;100269.34;;;23.43;72.58
50105;BME280;47690;39.202;-77.198;2023-09-12T05:44:42;100271.25;;;23.41;72.71
50105;BME280;47690;39.202;-77.198;2023-09-12T05:47:16;100266.22;;;23.38;72.47
50105;BME280;47690;39.202;-77.198;2023-09-12T05:49:47;100271.56;;;23.37;72.46
50105;BME280;47690;39.202;-77.198;2023-09-12T05:52:18;100262.81;;;23.36;72.66
50105;BME280;47690;39.202;-77.198;2023-09-12T05:54:49;100259.38;;;23.36;72.48
50105;BME280;47690;39.202;-77.198;2023-09-12T05:57:20;100255.16;;;23.33;72.38
50105;BME280;47690;39.202;-77.198;2023-09-12T05:59:49;100264.94;;;23.31;72.69
50105;BME280;47690;39.202;-77.198;2023-09-12T06:02:19;100265.03;;;23.29;73.02
50105;BME280;47690;39.202;-77.198;2023-09-12T06:04:49;100261.66;;;23.27;72.56
50105;BME280;47690;39.202;-77.198;2023-09-12T06:07:19;100258.41;;;23.24;72.50
50105;BME280;47690;39.202;-77.198;2023-09-12T06:09:49;100257.66;;;23.22;72.62
50105;BME280;47690;39.202;-77.198;2023-09-12T06:12:19;100256.09;;;23.19;72.44
50105;BME280;47690;39.202;-77.198;2023-09-12T06:14:49;100250.84;;;23.19;72.82
50105;BME280;47690;39.202;-77.198;2023-09-12T06:17:19;100252.84;;;23.15;72.26
50105;BME280;47690;39.202;-77.198;2023-09-12T06:19:49;100254.69;;;23.13;72.24
50105;BME280;47690;39.202;-77.198;2023-09-12T06:22:19;100247.91;;;23.11;72.50
50105;BME280;47690;39.202;-77.198;2023-09-12T06:24:51;100248.94;;;23.08;72.60
50105;BME280;47690;39.202;-77.198;2023-09-12T06:27:21;100251.66;;;23.06;72.31
50105;BME280;47690;39.202;-77.198;2023-09-12T06:29:51;100257.88;;;23.05;72.59
50105;BME280;47690;39.202;-77.198;2023-09-12T06:32:21;100253.66;;;23.03;72.69
50105;BME280;47690;39.202;-77.198;2023-09-12T06:34:52;100255.66;;;22.99;72.67
50105;BME280;47690;39.202;-77.198;2023-09-12T06:37:23;100245.25;;;22.98;72.38
50105;BME280;47690;39.202;-77.198;2023-09-12T06:39:56;100246.28;;;22.95;72.31
50105;BME280;47690;39.202;-77.198;2023-09-12T06:42:27;100247.22;;;22.94;72.60
50105;BME280;47690;39.202;-77.198;2023-09-12T06:44:56;100243.03;;;22.91;72.78
50105;BME280;47690;39.202;-77.198;2023-09-12T06:47:27;100243.88;;;22.92;72.63
50105;BME280;47690;39.202;-77.198;2023-09-12T06:49:56;100238.63;;;22.92;72.67
50105;BME280;47690;39.202;-77.198;2023-09-12T06:52:26;100241.25;;;22.92;72.77
50105;BME280;47690;39.202;-77.198;2023-09-12T06:54:59;100245.66;;;22.91;72.61
50105;BME280;47690;39.202;-77.198;2023-09-12T06:57:29;100238.84;;;22.89;72.66
50105;BME280;47690;39.202;-77.198;2023-09-12T07:00:00;100237.13;;;22.88;72.63
50105;BME280;47690;39.202;-77.198;2023-09-12T07:02:36;100241.47;;;22.89;72.68
50105;BME280;47690;39.202;-77.198;2023-09-12T07:05:08;100233.69;;;22.87;72.49
50105;BME280;47690;39.202;-77.198;2023-09-12T07:07:39;100231.06;;;22.87;72.50
50105;BME280;47690;39.202;-77.198;2023-09-12T07:10:09;100228.53;;;22.86;72.96
50105;BME280;47690;39.202;-77.198;2023-09-12T07:12:55;100229.38;;;22.86;72.79
50105;BME280;47690;39.202;-77.198;2023-09-12T07:15:27;100223.38;;;22.84;72.84
50105;BME280;47690;39.202;-77.198;2023-09-12T07:17:57;100227.88;;;22.82;72.50
50105;BME280;47690;39.202;-77.198;2023-09-12T07:20:29;100226.94;;;22.83;72.28
50105;BME280;47690;39.202;-77.198;2023-09-12T07:22:59;100221.06;;;22.79;72.62
50105;BME280;47690;39.202;-77.198;2023-09-12T07:25:29;100225.59;;;22.77;72.29
50105;BME280;47690;39.202;-77.198;2023-09-12T07:27:58;100226.63;;;22.75;72.44
50105;BME280;47690;39.202;-77.198;2023-09-12T07:30:27;100218.84;;;22.73;72.97
50105;BME280;47690;39.202;-77.198;2023-09-12T07:32:59;100217.91;;;22.74;72.47
50105;BME280;47690;39.202;-77.198;2023-09-12T07:35:31;100216.13;;;22.75;73.02
50105;BME280;47690;39.202;-77.198;2023-09-12T07:38:01;100221.47;;;22.73;72.56
50105;BME280;47690;39.202;-77.198;2023-09-12T07:40:31;100225.03;;;22.72;73.03
50105;BME280;47690;39.202;-77.198;2023-09-12T07:43:01;100219.28;;;22.67;72.47
50105;BME280;47690;39.202;-77.198;2023-09-12T07:45:32;100215.06;;;22.64;72.28
50105;BME280;47690;39.202;-77.198;2023-09-12T07:48:07;100211.91;;;22.59;72.62
50105;BME280;47690;39.202;-77.198;2023-09-12T07:50:38;100215.69;;;22.55;72.73
50105;BME280;47690;39.202;-77.198;2023-09-12T07:53:08;100208.84;;;22.53;72.90
50105;BME280;47690;39.202;-77.198;2023-09-12T07:55:38;100209.84;;;22.50;72.92
50105;BME280;47690;39.202;-77.198;2023-09-12T07:58:18;100202.06;;;22.48;72.82
50105;BME280;47690;39.202;-77.198;2023-09-12T08:00:48;100210.25;;;22.44;72.80
50105;BME280;47690;39.202;-77.198;2023-09-12T08:03:21;100213.91;;;22.41;72.64
50105;BME280;47690;39.202;-77.198;2023-09-12T08:05:57;100221.78;;;22.41;72.91
50105;BME280;47690;39.202;-77.198;2023-09-12T08:08:27;100214.88;;;22.40;72.67
50105;BME280;47690;39.202;-77.198;2023-09-12T08:11:07;100203.41;;;22.41;72.73
50105;BME280;47690;39.202;-77.198;2023-09-12T08:13:37;100213.19;;;22.39;72.86
50105;BME280;47690;39.202;-77.198;2023-09-12T08:16:09;100211.50;;;22.38;73.29
50105;BME280;47690;39.202;-77.198;2023-09-12T08:18:39;100216.84;;;22.36;73.16
50105;BME280;47690;39.202;-77.198;2023-09-12T08:21:07;100212.56;;;22.35;73.18
50105;BME280;47690;39.202;-77.198;2023-09-12T08:23:37;100212.63;;;22.34;73.19
50105;BME280;47690;39.202;-77.198;2023-09-12T08:26:07;100219.78;;;22.32;72.95
50105;BME280;47690;39.202;-77.198;2023-09-12T08:28:37;100223.34;;;22.31;72.93
50105;BME280;47690;39.202;-77.198;2023-09-12T08:31:07;100225.22;;;22.29;72.98
50105;BME280;47690;39.202;-77.198;2023-09-12T08:33:37;100219.97;;;22.29;73.20
50105;BME280;47690;39.202;-77.198;2023-09-12T08:36:05;100217.47;;;22.27;72.93
50105;BME280;47690;39.202;-77.198;2023-09-12T08:38:35;100220.19;;;22.26;72.79
50105;BME280;47690;39.202;-77.198;2023-09-12T08:41:06;100213.97;;;22.27;73.03
50105;BME280;47690;39.202;-77.198;2023-09-12T08:43:37;100215.56;;;22.29;73.43
50105;BME280;47690;39.202;-77.198;2023-09-12T08:46:09;100223.22;;;22.32;73.50
50105;BME280;47690;39.202;-77.198;2023-09-12T08:48:43;100216.22;;;22.33;73.13
50105;BME280;47690;39.202;-77.198;2023-09-12T08:51:16;100206.44;;;22.35;72.98
50105;BME280;47690;39.202;-77.198;2023-09-12T08:53:47;100218.84;;;22.33;73.32
50105;BME280;47690;39.202;-77.198;2023-09-12T08:56:18;100214.53;;;22.32;72.95
50105;BME280;47690;39.202;-77.198;2023-09-12T08:58:48;100222.59;;;22.29;73.25
50105;BME280;47690;39.202;-77.198;2023-09-12T09:01:20;100222.72;;;22.27;73.25
50105;BME280;47690;39.202;-77.198;2023-09-12T09:03:50;100229.81;;;22.25;73.34
50105;BME280;47690;39.202;-77.198;2023-09-12T09:06:22;100228.03;;;22.26;73.55
50105;BME280;47690;39.202;-77.198;2023-09-12T09:08:54;100237.81;;;22.23;73.17
50105;BME280;47690;39.202;-77.198;2023-09-12T09:11:24;100234.41;;;22.21;73.54
50105;BME280;47690;39.202;-77.198;2023-09-12T09:13:56;100236.22;;;22.21;73.52
50105;BME280;47690;39.202;-77.198;2023-09-12T09:16:26;100226.53;;;22.21;73.76
50105;BME280;47690;39.202;-77.198;2023-09-12T09:19:04;100232.44;;;22.25;73.45
50105;BME280;47690;39.202;-77.198;2023-09-12T09:21:39;100243.06;;;22.23;73.55
50105;BME280;47690;39.202;-77.198;2023-09-12T09:24:14;100238.63;;;22.24;73.58
50105;BME280;47690;39.202;-77.198;2023-09-12T09:26:51;100246.63;;;22.22;73.77
50105;BME280;47690;39.202;-77.198;2023-09-12T09:29:28;100234.41;;;22.21;73.61
50105;BME280;47690;39.202;-77.198;2023-09-12T09:32:02;100241.47;;;22.21;73.65
50105;BME280;47690;39.202;-77.198;2023-09-12T09:34:39;100232.75;;;22.20;73.92
50105;BME280;47690;39.202;-77.198;2023-09-12T09:37:09;100232.94;;;22.17;73.95
50105;BME280;47690;39.202;-77.198;2023-09-12T09:39:41;100237.34;;;22.17;73.42
50105;BME280;47690;39.202;-77.198;2023-09-12T09:42:11;100243.53;;;22.16;73.39
50105;BME280;47690;39.202;-77.198;2023-09-12T09:44:41;100234.72;;;22.17;73.56
50105;BME280;47690;39.202;-77.198;2023-09-12T09:47:15;100227.69;;;22.17;73.63
50105;BME280;47690;39.202;-77.198;2023-09-12T09:49:45;100230.25;;;22.19;73.65
50105;BME280;47690;39.202;-77.198;2023-09-12T09:52:15;100216.34;;;22.17;73.77
50105;BME280;47690;39.202;-77.198;2023-09-12T09:54:46;100213.09;;;22.13;73.48
50105;BME280;47690;39.202;-77.198;2023-09-12T09:57:15;100212.34;;;22.11;73.29
50105;BME280;47690;39.202;-77.198;2023-09-12T09:59:49;100211.63;;;22.09;73.68
50105;BME280;47690;39.202;-77.198;2023-09-12T10:02:24;100205.72;;;22.05;73.21
50105;BME280;47690;39.202;-77.198;2023-09-12T10:04:57;100205.91;;;22.02;73.17
50105;BME280;47690;39.202;-77.198;2023-09-12T10:07:32;100206.84;;;22.01;73.61
50105;BME280;47690;39.202;-77.198;2023-09-12T10:10:03;100220.91;;;22.00;73.58
50105;BME280;47690;39.202;-77.198;2023-09-12T10:12:41;100217.44;;;22.00;73.21
50105;BME280;47690;39.202;-77.198;2023-09-12T10:15:18;100218.38;;;21.99;73.46
50105;BME280;47690;39.202;-77.198;2023-09-12T10:18:00;100220.06;;;22.00;73.70
50105;BME280;47690;39.202;-77.198;2023-09-12T10:20:54;100215.03;;;21.96;73.52
50105;BME280;47690;39.202;-77.198;2023-09-12T10:23:39;100219.53;;;21.94;73.42
50105;BME280;47690;39.202;-77.198;2023-09-12T10:26:13;100226.75;;;21.91;73.89
50105;BME280;47690;39.202;-77.198;2023-09-12T10:28:43;100228.50;;;21.90;74.04
50105;BME280;47690;39.202;-77.198;2023-09-12T10:31:16;100223.28;;;21.90;73.78
50105;BME280;47690;39.202;-77.198;2023-09-12T10:33:47;100235.56;;;21.90;73.70
50105;BME280;47690;39.202;-77.198;2023-09-12T10:36:23;100227.78;;;21.88;74.04
50105;BME280;47690;39.202;-77.198;2023-09-12T10:38:57;100218.16;;;21.89;74.10
50105;BME280;47690;39.202;-77.198;2023-09-12T10:41:33;100228.63;;;21.89;73.69
50105;BME280;47690;39.202;-77.198;2023-09-12T10:44:12;100233.03;;;21.88;73.64
50105;BME280;47690;39.202;-77.198;2023-09-12T10:46:45;100230.59;;;21.85;73.70
50105;BME280;47690;39.202;-77.198;2023-09-12T10:49:17;100228.16;;;21.82;73.79
50105;BME280;47690;39.202;-77.198;2023-09-12T10:51:48;100235.19;;;21.81;74.03
50105;BME280;47690;39.202;-77.198;2023-09-12T10:54:41;100230.78;;;21.82;73.70
50105;BME280;47690;39.202;-77.198;2023-09-12T10:57:11;100238.00;;;21.78;73.65
50105;BME280;47690;39.202;-77.198;2023-09-12T11:02:41;100259.91;;;21.77;73.62
50105;BME280;47690;39.202;-77.198;2023-09-12T11:08:01;100260.94;;;21.75;73.52
50105;BME280;47690;39.202;-77.198;2023-09-12T11:10:33;100263.75;;;21.72;73.87
50105;BME280;47690;39.202;-77.198;2023-09-12T11:13:03;100263.75;;;21.72;74.14
50105;BME280;47690;39.202;-77.198;2023-09-12T11:15:32;100274.13;;;21.73;73.64
50105;BME280;47690;39.202;-77.198;2023-09-12T11:18:07;100275.72;;;21.76;73.72
50105;BME280;47690;39.202;-77.198;2023-09-12T11:20:50;100268.63;;;21.78;74.01
50105;BME280;47690;39.202;-77.198;2023-09-12T11:23:25;100279.28;;;21.75;74.21
50105;BME280;47690;39.202;-77.198;2023-09-12T11:26:04;100280.16;;;21.75;73.96
50105;BME280;47690;39.202;-77.198;2023-09-12T11:28:37;100283.88;;;21.71;74.46
50105;BME280;47690;39.202;-77.198;2023-09-12T11:31:08;100291.75;;;21.71;74.05
50105;BME280;47690;39.202;-77.198;2023-09-12T11:33:40;100290.81;;;21.72;74.39
50105;BME280;47690;39.202;-77.198;2023-09-12T11:36:13;100290.63;;;21.75;74.32
50105;BME280;47690;39.202;-77.198;2023-09-12T11:38:43;100293.13;;;21.77;74.69
50105;BME280;47690;39.202;-77.198;2023-09-12T11:41:40;100294.44;;;21.84;74.66
50105;BME280;47690;39.202;-77.198;2023-09-12T11:44:10;100296.31;;;21.82;74.64
50105;BME280;47690;39.202;-77.198;2023-09-12T11:46:39;100301.56;;;21.82;74.65
50105;BME280;47690;39.202;-77.198;2023-09-12T11:49:15;100303.38;;;21.81;74.65
50105;BME280;47690;39.202;-77.198;2023-09-12T11:51:51;100304.94;;;21.84;74.77
50105;BME280;47690;39.202;-77.198;2023-09-12T11:54:25;100301.56;;;21.82;74.92
50105;BME280;47690;39.202;-77.198;2023-09-12T11:56:55;100303.25;;;21.83;74.82
50105;BME280;47690;39.202;-77.198;2023-09-12T11:59:26;100303.16;;;21.85;74.84
50105;BME280;47690;39.202;-77.198;2023-09-12T12:01:57;100304.03;;;21.85;74.86
50105;BME280;47690;39.202;-77.198;2023-09-12T12:04:28;100302.97;;;21.88;74.94
50105;BME280;47690;39.202;-77.198;2023-09-12T12:06:57;100296.81;;;21.89;75.22
50105;BME280;47690;39.202;-77.198;2023-09-12T12:09:30;100301.75;;;21.93;75.49
50105;BME280;47690;39.202;-77.198;2023-09-12T12:12:09;100294.34;;;22.00;75.73
50105;BME280;47690;39.202;-77.198;2023-09-12T12:14:40;100289.75;;;22.04;75.63
50105;BME280;47690;39.202;-77.198;2023-09-12T12:17:11;100285.88;;;22.09;75.42
50105;BME280;47690;39.202;-77.198;2023-09-12T12:19:45;100290.75;;;22.16;76.31
50105;BME280;47690;39.202;-77.198;2023-09-12T12:22:15;100288.78;;;22.19;75.94
50105;BME280;47690;39.202;-77.198;2023-09-12T12:24:46;100283.13;;;22.26;76.51
50105;BME280;47690;39.202;-77.198;2023-09-12T12:27:16;100284.66;;;22.30;76.59
50105;BME280;47690;39.202;-77.198;2023-09-12T12:29:46;100293.97;;;22.34;76.40
50105;BME280;47690;39.202;-77.198;2023-09-12T12:32:16;100288.56;;;22.37;76.82
50105;BME280;47690;39.202;-77.198;2023-09-12T12:34:49;100288.03;;;22.45;77.03
50105;BME280;47690;39.202;-77.198;2023-09-12T12:37:41;100278.03;;;22.51;76.75
50105;BME280;47690;39.202;-77.198;2023-09-12T12:40:19;100287.06;;;22.60;76.94
50105;BME280;47690;39.202;-77.198;2023-09-12T12:42:51;100292.66;;;22.69;77.17
50105;BME280;47690;39.202;-77.198;2023-09-12T12:45:24;100294.06;;;22.74;76.83
50105;BME280;47690;39.202;-77.198;2023-09-12T12:47:58;100299.53;;;22.84;78.29
50105;BME280;47690;39.202;-77.198;2023-09-12T12:50:29;100297.44;;;22.89;78.41
50105;BME280;47690;39.202;-77.198;2023-09-12T12:53:00;100296.94;;;22.97;78.30
50105;BME280;47690;39.202;-77.198;2023-09-12T12:55:33;100311.34;;;23.04;78.50
50105;BME280;47690;39.202;-77.198;2023-09-12T12:58:04;100300.31;;;23.12;79.05
50105;BME280;47690;39.202;-77.198;2023-09-12T13:00:37;100307.69;;;23.20;79.03
50105;BME280;47690;39.202;-77.198;2023-09-12T13:03:11;100302.75;;;23.28;79.44
50105;BME280;47690;39.202;-77.198;2023-09-12T13:05:45;100305.72;;;23.37;79.74